KBTP/BTP METAR and TAF weather

Enter ICAO airport designator
Station Type Date Time Source
KBTP METAR 2020/04/06 17:56 UTC NOAA

KBTP 061756Z AUTO 13003KT 10SM CLR 15/M02 A3011 RMK AO2 SLP206 T01501017


Station Type Date Time Source
KBTP Decoded METAR 2020/04/06 17:56 UTC NOAA

Butler, Butler County Airport/K W Scholter Field, PA, United States (KBTP) 40-47N 079-57W
Apr 06, 2020 - 01:56 PM EDT / 2020.04.06 1756 UTC
Wind: from the SE (130 degrees) at 3 MPH (3 KT):0
Visibility: 10 mile(s):0
Sky conditions: clear
Temperature: 59.0 F (15.0 C)
Dew Point: 28.9 F (-1.7 C)
Relative Humidity: 31%
Pressure (altimeter): 30.11 in. Hg (1019 hPa)
Pressure tendency: 0.05 inches (1.6 hPa) lower than three hours ago
ob: KBTP 061756Z AUTO 13003KT 10SM CLR 15/M02 A3011 RMK AO2 SLP206 T01501017 10150 20011 58016
cycle: 18

Station Type Date Time Source
KBTP TAF UTC NOAA

Error!

Example: see airport list